Time;durP1;ratioP1;P1;durP2;ratioP2;P2;SDS_P1;SDS_P2;PMS_P1;PMS_P2;Temp;Humidity;BMP_temperature;BMP_pressure;BME280_temperature;BME280_humidity;BME280_pressure;Samples;Min_cycle;Max_cycle;Signal;HPM_P1;HPM_P2
2023/08/09 00:02:07;;;;;;;2.83;1.57;;;;;;;15.76;65.87;100567.45;1705380;80;21386;-54
2023/08/09 00:05:13;;;;;;;1.90;1.20;;;;;;;15.80;66.03;100575.12;1694392;80;21397;-55
2023/08/09 00:10:48;;;;;;;3.05;1.52;;;;;;;15.88;66.27;100580.98;1708949;80;21248;-56
2023/08/09 00:16:22;;;;;;;5.28;1.80;;;;;;;15.91;66.43;100592.48;1707146;80;21287;-57
2023/08/09 00:21:57;;;;;;;2.45;1.57;;;;;;;15.98;66.73;100592.52;1703891;80;21749;-56
2023/08/09 00:27:33;;;;;;;4.42;1.60;;;;;;;16.02;66.84;100605.70;1709624;79;21232;-58
2023/08/09 00:33:08;;;;;;;2.95;1.40;;;;;;;16.06;66.99;100597.31;1713636;80;21382;-57
2023/08/09 00:38:43;;;;;;;2.15;1.57;;;;;;;16.03;67.08;100581.16;1699610;80;21358;-56
2023/08/09 00:44:18;;;;;;;2.83;1.40;;;;;;;15.99;67.28;100566.07;1706192;79;21231;-56
2023/08/09 00:49:55;;;;;;;3.52;1.42;;;;;;;15.99;67.47;100570.73;1704678;79;21369;-55
2023/08/09 00:58:01;;;;;;;4.00;1.42;;;;;;;15.84;67.60;100575.02;1707910;80;21283;-57
2023/08/09 01:03:36;;;;;;;1.90;1.50;;;;;;;15.81;67.92;100565.77;1696164;82;21751;-56
2023/08/09 01:09:41;;;;;;;2.37;1.37;;;;;;;15.81;68.12;100558.86;1708207;81;21907;-56
2023/08/09 01:17:46;;;;;;;1.98;1.32;;;;;;;15.78;68.43;100546.00;1692045;81;21350;-56
2023/08/09 01:23:28;;;;;;;1.22;1.10;;;;;;;15.72;68.56;100539.92;1716748;80;21497;-54
2023/08/09 01:26:35;;;;;;;2.47;1.27;;;;;;;15.69;68.61;100537.58;1704014;80;21414;-55
2023/08/09 01:29:43;;;;;;;3.12;1.45;;;;;;;15.65;68.72;100531.61;1704648;81;21240;-56
2023/08/09 01:32:48;;;;;;;1.50;1.30;;;;;;;15.63;68.85;100539.27;1709376;79;21193;-55
2023/08/09 01:41:00;;;;;;;3.87;1.45;;;;;;;15.64;69.23;100540.09;1709007;80;21417;-54
2023/08/09 01:44:07;;;;;;;1.75;1.30;;;;;;;15.64;69.29;100535.44;1694905;81;21500;-57
2023/08/09 01:47:13;;;;;;;2.27;1.12;;;;;;;15.65;69.43;100542.64;1705761;79;21370;-57
2023/08/09 01:50:30;;;;;;;3.65;1.50;;;;;;;15.66;69.50;100541.61;1707026;80;21885;-55
2023/08/09 01:53:35;;;;;;;2.02;1.57;;;;;;;15.67;69.63;100559.00;1709362;80;21849;-56
2023/08/09 01:56:42;;;;;;;3.10;1.80;;;;;;;15.69;69.80;100568.80;1711650;79;21372;-56
2023/08/09 02:02:21;;;;;;;3.20;1.80;;;;;;;15.80;70.19;100590.81;1710161;81;21975;-55
2023/08/09 02:05:28;;;;;;;2.25;1.37;;;;;;;15.83;70.25;100588.51;1703382;80;21944;-55
2023/08/09 02:11:03;;;;;;;3.85;1.85;;;;;;;15.84;70.30;100572.80;1708241;79;21389;-55
2023/08/09 02:16:40;;;;;;;2.70;2.02;;;;;;;15.83;70.48;100567.80;1664247;79;21242;-55
2023/08/09 02:24:46;;;;;;;4.45;2.10;;;;;;;15.88;70.72;100580.98;1706741;79;21265;-58
2023/08/09 02:30:20;;;;;;;6.17;1.95;;;;;;;15.92;70.89;100563.80;1706497;81;22169;-56
2023/08/09 02:33:25;;;;;;;3.20;1.65;;;;;;;15.92;70.96;100562.42;1689667;80;21810;-56
2023/08/09 02:38:57;;;;;;;2.02;1.50;;;;;;;15.93;71.01;100566.04;1701897;79;21919;-56
2023/08/09 02:44:32;;;;;;;2.02;1.20;;;;;;;15.91;71.10;100559.34;1711660;80;21496;-56
2023/08/09 02:50:07;;;;;;;2.98;1.37;;;;;;;15.91;71.19;100564.87;1703414;80;22020;-57
2023/08/09 02:55:43;;;;;;;2.52;1.40;;;;;;;15.92;71.39;100573.46;1706275;80;21915;-57
2023/08/09 02:58:49;;;;;;;2.85;1.55;;;;;;;15.94;71.49;100580.16;1702958;80;21404;-56
2023/08/09 03:04:22;;;;;;;3.30;1.35;;;;;;;16.02;71.66;100571.70;1707251;80;21224;-56
2023/08/09 03:09:57;;;;;;;3.10;1.60;;;;;;;16.10;71.80;100565.48;1704522;81;21378;-54
2023/08/09 03:15:34;;;;;;;4.15;1.92;;;;;;;16.09;71.70;100546.35;1704965;80;21370;-55
2023/08/09 03:21:09;;;;;;;2.47;1.50;;;;;;;16.07;71.75;100551.22;1702373;78;21267;-53
2023/08/09 03:24:16;;;;;;;2.47;1.60;;;;;;;16.08;71.84;100555.16;1683269;81;21375;-55
2023/08/09 03:29:52;;;;;;;4.15;1.65;;;;;;;16.12;71.96;100557.84;1716540;79;21438;-54
2023/08/09 03:35:29;;;;;;;2.30;1.75;;;;;;;16.15;72.08;100564.33;1724258;79;21375;-54
2023/08/09 03:41:05;;;;;;;2.77;1.80;;;;;;;16.25;72.29;100559.80;1714214;80;21240;-54
2023/08/09 03:46:41;;;;;;;1.40;1.30;;;;;;;16.32;72.42;100587.75;1713289;80;21263;-58
2023/08/09 03:52:15;;;;;;;3.08;1.45;;;;;;;16.47;72.68;100615.25;1714064;80;21382;-57
2023/08/09 03:57:51;;;;;;;4.05;1.55;;;;;;;16.60;72.76;100615.30;1722003;80;21268;-57
2023/08/09 04:00:56;;;;;;;2.35;1.45;;;;;;;16.66;72.82;100613.59;1714778;79;21341;-57
2023/08/09 04:06:31;;;;;;;3.50;1.32;;;;;;;16.80;72.90;100616.70;1688620;81;21409;-58
2023/08/09 04:12:08;;;;;;;3.08;1.50;;;;;;;16.87;72.91;100617.58;1683864;81;21826;-56
2023/08/09 04:20:16;;;;;;;4.03;1.60;;;;;;;16.95;72.98;100632.59;1718994;80;21410;-55
2023/08/09 04:28:19;;;;;;;2.67;1.70;;;;;;;17.01;73.00;100635.88;1699729;81;21401;-56
2023/08/09 04:33:56;;;;;;;3.25;1.75;;;;;;;17.03;73.08;100650.37;1726700;80;21387;-59
2023/08/09 04:39:31;;;;;;;2.37;1.90;;;;;;;17.04;73.19;100640.98;1723468;80;21417;-57
2023/08/09 04:45:07;;;;;;;5.80;1.65;;;;;;;17.07;73.27;100638.66;1718879;80;21874;-57
2023/08/09 04:53:12;;;;;;;2.15;1.90;;;;;;;17.21;73.52;100660.25;1702994;79;21252;-58
2023/08/09 04:56:17;;;;;;;2.45;1.80;;;;;;;17.26;73.52;100661.86;1709794;79;21394;-57
2023/08/09 05:01:52;;;;;;;3.85;1.87;;;;;;;17.30;73.51;100677.83;1689333;81;21242;-59
2023/08/09 05:07:28;;;;;;;2.98;1.90;;;;;;;17.37;73.61;100680.59;1672307;80;22440;-58
2023/08/09 05:13:04;;;;;;;3.17;2.20;;;;;;;17.48;73.63;100678.61;1701563;79;21264;-55
2023/08/09 05:16:10;;;;;;;5.70;2.67;;;;;;;17.53;73.70;100685.75;1697571;80;21227;-56
2023/08/09 05:21:46;;;;;;;2.67;1.98;;;;;;;17.67;73.81;100679.12;1702386;80;21601;-55
2023/08/09 05:27:22;;;;;;;4.20;2.02;;;;;;;17.75;73.87;100692.23;1697285;80;21190;-56
2023/08/09 05:30:26;;;;;;;3.37;2.12;;;;;;;17.80;73.93;100701.28;1697356;80;21547;-55
2023/08/09 05:33:33;;;;;;;3.55;2.20;;;;;;;17.88;74.03;100695.52;1719069;79;21264;-55
2023/08/09 05:39:08;;;;;;;3.17;2.10;;;;;;;17.96;73.90;100702.22;1741550;80;21275;-57
2023/08/09 05:44:42;;;;;;;3.47;1.90;;;;;;;18.01;73.90;100709.35;1707673;80;21259;-55
2023/08/09 05:50:17;;;;;;;2.77;2.08;;;;;;;18.06;73.98;100709.53;1704875;79;21298;-56
2023/08/09 05:53:22;;;;;;;3.58;2.00;;;;;;;18.13;74.04;100718.70;1666304;80;21211;-54
2023/08/09 06:01:25;;;;;;;2.80;1.87;;;;;;;18.29;74.05;100719.61;1698318;80;21287;-55
2023/08/09 06:07:00;;;;;;;1.87;1.60;;;;;;;18.33;73.96;100727.80;1698608;80;21681;-55
2023/08/09 06:12:36;;;;;;;2.62;1.92;;;;;;;18.45;74.08;100732.17;1698787;80;21240;-56
2023/08/09 06:15:42;;;;;;;2.70;1.90;;;;;;;18.55;74.11;100750.05;1682637;79;21260;-57
2023/08/09 06:21:17;;;;;;;2.05;1.60;;;;;;;18.73;74.04;100759.05;1669838;82;21275;-54
2023/08/09 06:29:22;;;;;;;2.98;1.60;;;;;;;18.82;74.00;100755.81;1710311;80;21296;-56
2023/08/09 06:34:58;;;;;;;3.72;1.35;;;;;;;18.91;73.94;100760.05;1695412;80;21295;-55
2023/08/09 06:40:34;;;;;;;2.02;1.57;;;;;;;19.00;73.92;100755.08;1700106;81;21200;-54
2023/08/09 06:43:40;;;;;;;2.02;1.60;;;;;;;19.07;74.02;100755.39;1665303;80;21208;-55
2023/08/09 06:46:38;;;;;;;1.60;1.30;;;;;;;19.17;74.01;100759.07;1646630;83;21184;-55
2023/08/09 06:52:14;;;;;;;4.22;1.77;;;;;;;19.28;73.80;100766.16;1693836;78;21738;-55
2023/08/09 06:55:20;;;;;;;2.52;1.75;;;;;;;19.34;73.79;100774.98;1702137;80;21532;-55
2023/08/09 07:00:56;;;;;;;4.25;2.37;;;;;;;19.51;73.72;100780.87;1700352;80;21247;-55
2023/08/09 07:06:34;;;;;;;4.03;1.42;;;;;;;19.73;73.70;100778.03;1681683;80;21224;-56
2023/08/09 07:12:10;;;;;;;2.85;1.70;;;;;;;19.97;73.63;100788.84;1692850;80;21346;-53
2023/08/09 07:17:48;;;;;;;2.50;1.50;;;;;;;20.20;73.44;100790.50;1651501;81;21667;-55
2023/08/09 07:23:25;;;;;;;4.65;2.00;;;;;;;20.24;73.01;100775.05;1656239;82;21237;-55
2023/08/09 07:29:03;;;;;;;5.00;1.87;;;;;;;20.17;72.89;100767.33;1686482;80;21336;-55
2023/08/09 07:34:38;;;;;;;2.20;1.40;;;;;;;20.40;73.07;100777.23;1690780;80;21249;-56
2023/08/09 07:40:16;;;;;;;3.70;1.57;;;;;;;20.53;72.73;100770.14;1680282;80;21376;-54
2023/08/09 07:43:12;;;;;;;6.97;1.60;;;;;;;20.58;72.68;100774.48;1710370;80;21996;-56
2023/08/09 07:46:21;;;;;;;1.85;1.30;;;;;;;20.59;72.54;100770.60;1704927;80;21231;-56
2023/08/09 07:54:28;;;;;;;4.12;1.57;;;;;;;20.62;72.36;100777.09;1711222;80;21579;-55
2023/08/09 08:00:11;;;;;;;2.67;1.45;;;;;;;20.68;72.13;100779.80;1691523;80;22042;-56
2023/08/09 08:08:14;;;;;;;2.83;1.30;;;;;;;20.77;71.96;100773.40;1691086;80;21330;-56
2023/08/09 08:13:51;;;;;;;2.55;1.20;;;;;;;20.89;71.88;100767.88;1667722;80;21264;-57
2023/08/09 08:19:28;;;;;;;2.87;1.70;;;;;;;21.13;71.89;100763.64;1704685;79;21229;-56
2023/08/09 08:25:02;;;;;;;1.85;1.50;;;;;;;21.43;71.75;100774.77;1708519;80;21241;-55
2023/08/09 08:30:36;;;;;;;2.62;1.50;;;;;;;21.46;71.10;100786.30;1710258;80;21243;-57
2023/08/09 08:36:14;;;;;;;1.30;1.02;;;;;;;21.47;71.08;100783.80;1694818;78;21251;-55
2023/08/09 08:41:51;;;;;;;3.50;1.37;;;;;;;21.66;70.91;100792.41;1693592;79;21329;-57
2023/08/09 08:47:26;;;;;;;3.55;1.62;;;;;;;21.76;70.55;100771.81;1696979;81;21641;-58
2023/08/09 08:53:04;;;;;;;2.02;1.27;;;;;;;21.95;70.54;100772.03;1696231;80;21872;-58
2023/08/09 08:58:39;;;;;;;4.08;1.40;;;;;;;22.21;70.29;100777.70;1695218;80;21254;-59
2023/08/09 09:04:16;;;;;;;3.05;1.25;;;;;;;22.30;69.67;100789.32;1699023;80;21226;-59
2023/08/09 09:10:10;;;;;;;1.40;1.20;;;;;;;22.40;69.54;100772.83;1706797;80;21596;-58
2023/08/09 09:13:33;;;;;;;2.02;1.25;;;;;;;22.53;69.49;100772.09;1708856;80;21222;-57
2023/08/09 09:16:39;;;;;;;1.95;0.95;;;;;;;22.58;69.10;100778.33;1706207;81;21778;-60
2023/08/09 09:19:29;;;;;;;2.87;1.37;;;;;;;22.65;68.95;100786.00;1640565;81;21305;-62
2023/08/09 09:22:35;;;;;;;1.40;1.10;;;;;;;22.78;68.97;100786.61;1679227;81;21277;-58
2023/08/09 09:28:14;;;;;;;1.40;1.15;;;;;;;22.94;68.56;100786.39;1696208;80;21392;-60
2023/08/09 09:33:55;;;;;;;2.22;1.30;;;;;;;22.97;67.99;100791.47;1654748;82;21264;-59
2023/08/09 09:39:30;;;;;;;2.62;1.15;;;;;;;22.93;67.61;100783.30;1705690;80;21275;-58
2023/08/09 09:45:15;;;;;;;2.10;1.00;;;;;;;23.00;67.39;100788.19;1715568;80;21852;-59
2023/08/09 09:48:25;;;;;;;4.75;4.00;;;;;;;23.04;67.15;100782.42;1712788;80;21386;-59
2023/08/09 09:51:32;;;;;;;2.30;1.30;;;;;;;23.05;66.99;100779.91;1728109;81;21350;-57
2023/08/09 09:54:39;;;;;;;1.27;0.98;;;;;;;23.12;66.93;100775.05;1734749;80;21302;-58
2023/08/09 09:57:43;;;;;;;1.55;1.10;;;;;;;23.21;66.79;100783.33;1696916;79;21257;-58
2023/08/09 10:00:53;;;;;;;2.75;1.95;;;;;;;23.31;66.59;100791.92;1698082;82;21860;-56
2023/08/09 10:04:13;;;;;;;1.35;1.12;;;;;;;23.34;66.27;100774.69;1654115;82;21244;-56
2023/08/09 10:07:21;;;;;;;3.72;1.50;;;;;;;23.39;66.09;100785.41;1670061;80;21283;-55
2023/08/09 10:10:28;;;;;;;2.00;1.02;;;;;;;23.44;65.79;100800.02;1679035;80;21879;-55
2023/08/09 10:16:25;;;;;;;1.52;1.05;;;;;;;23.49;65.46;100779.16;1694980;79;21280;-55
2023/08/09 10:19:31;;;;;;;0.95;0.88;;;;;;;23.57;65.30;100780.16;1699694;80;21251;-55
2023/08/09 10:22:38;;;;;;;1.07;0.98;;;;;;;23.75;65.10;100797.27;1698758;81;21272;-55
2023/08/09 10:25:53;;;;;;;1.92;1.27;;;;;;;23.93;64.98;100783.89;1678137;80;21365;-53
2023/08/09 10:28:59;;;;;;;1.70;1.00;;;;;;;24.08;64.69;100780.00;1702000;80;21282;-56
2023/08/09 10:32:08;;;;;;;3.33;1.20;;;;;;;24.11;64.26;100779.48;1699564;78;21251;-55
2023/08/09 10:35:24;;;;;;;1.62;1.00;;;;;;;24.18;64.13;100794.13;1715653;80;21234;-51
2023/08/09 10:41:02;;;;;;;4.12;1.30;;;;;;;24.36;63.66;100780.42;1707292;79;21408;-57
2023/08/09 10:46:41;;;;;;;1.32;1.10;;;;;;;24.60;63.28;100779.98;1691847;80;21212;-56
2023/08/09 10:52:22;;;;;;;2.00;1.37;;;;;;;24.70;62.63;100773.17;1697466;79;21299;-55
2023/08/09 10:55:31;;;;;;;2.02;1.27;;;;;;;24.58;62.24;100774.33;1696370;80;21753;-55
2023/08/09 10:58:37;;;;;;;2.00;1.27;;;;;;;24.52;62.12;100775.36;1701321;80;21307;-55
2023/08/09 11:01:45;;;;;;;1.87;1.10;;;;;;;24.64;62.17;100782.55;1691945;81;21315;-56
2023/08/09 11:04:52;;;;;;;2.90;1.20;;;;;;;24.75;61.95;100778.81;1645626;82;21676;-56
2023/08/09 11:07:59;;;;;;;2.95;1.20;;;;;;;24.88;61.79;100787.39;1676663;80;21809;-58
2023/08/09 11:13:35;;;;;;;2.40;1.30;;;;;;;25.18;61.43;100781.35;1663979;80;21623;-57
2023/08/09 11:21:50;;;;;;;2.45;1.50;;;;;;;25.75;61.00;100772.77;1697335;80;21303;-55
2023/08/09 11:24:57;;;;;;;2.42;1.17;;;;;;;25.87;60.70;100773.44;1692134;80;21642;-58
2023/08/09 11:28:04;;;;;;;1.27;1.12;;;;;;;25.95;60.24;100773.81;1706150;77;21256;-55
2023/08/09 11:31:09;;;;;;;3.55;1.47;;;;;;;25.87;59.66;100770.08;1696502;78;21271;-55
2023/08/09 11:34:14;;;;;;;2.42;1.50;;;;;;;25.73;59.16;100774.98;1629103;83;21772;-55
2023/08/09 11:37:20;;;;;;;1.45;1.30;;;;;;;25.50;58.79;100775.32;1703049;80;21801;-56
2023/08/09 11:40:26;;;;;;;1.62;0.90;;;;;;;25.40;58.69;100776.59;1661693;78;21240;-57
2023/08/09 11:46:04;;;;;;;1.37;1.17;;;;;;;25.55;58.56;100775.34;1671515;83;21646;-55
2023/08/09 11:54:14;;;;;;;3.62;1.27;;;;;;;25.90;58.34;100787.78;1694084;79;21268;-57
2023/08/09 11:59:47;;;;;;;2.92;1.85;;;;;;;26.06;57.89;100777.57;1701784;79;21760;-57
2023/08/09 12:02:49;;;;;;;2.55;1.25;;;;;;;26.13;57.63;100776.80;1696671;80;21324;-56
2023/08/09 12:08:25;;;;;;;6.62;1.50;;;;;;;26.06;56.79;100774.77;1704626;79;21232;-55
2023/08/09 12:14:02;;;;;;;1.80;1.40;;;;;;;25.79;56.32;100767.77;1682284;80;21274;-55
2023/08/09 12:19:37;;;;;;;5.83;1.50;;;;;;;25.79;56.08;100765.50;1639482;82;21293;-57
2023/08/09 12:22:44;;;;;;;2.05;1.50;;;;;;;25.81;55.94;100773.10;1688397;80;21614;-55
2023/08/09 12:25:43;;;;;;;6.25;2.05;;;;;;;25.77;55.70;100766.31;1697610;80;21764;-56
2023/08/09 12:31:20;;;;;;;4.62;1.80;;;;;;;25.66;55.24;100768.19;1706579;80;21378;-57
2023/08/09 12:34:26;;;;;;;2.40;1.10;;;;;;;25.69;55.25;100778.05;1704543;80;21734;-57
2023/08/09 12:40:05;;;;;;;1.77;1.25;;;;;;;25.72;54.86;100775.53;1710181;78;21225;-55
2023/08/09 12:45:39;;;;;;;4.08;1.70;;;;;;;25.85;54.72;100787.73;1689458;81;21228;-56
2023/08/09 12:51:14;;;;;;;1.75;1.30;;;;;;;25.99;54.57;100789.56;1694143;80;21507;-56
2023/08/09 12:54:21;;;;;;;3.92;1.60;;;;;;;26.00;54.43;100792.13;1687846;80;21217;-56
2023/08/09 12:59:57;;;;;;;2.12;1.42;;;;;;;25.78;54.07;100783.45;1692159;81;21291;-57
2023/08/09 13:05:32;;;;;;;2.12;1.60;;;;;;;25.75;53.92;100783.41;1648467;80;21231;-54
2023/08/09 13:13:41;;;;;;;2.05;1.60;;;;;;;26.10;53.80;100792.78;1702900;80;21356;-53
2023/08/09 13:16:47;;;;;;;1.92;1.40;;;;;;;26.18;53.67;100790.30;1706137;80;21234;-53
2023/08/09 13:24:57;;;;;;;1.90;1.30;;;;;;;26.42;53.10;100791.62;1696324;80;21228;-57
2023/08/09 13:28:04;;;;;;;2.42;1.37;;;;;;;26.43;52.86;100796.11;1704339;80;21442;-55
2023/08/09 13:33:45;;;;;;;1.65;1.40;;;;;;;26.20;52.48;100809.14;1671301;80;21248;-55
2023/08/09 13:39:24;;;;;;;2.62;1.40;;;;;;;26.01;52.26;100805.58;1697347;81;21349;-55
2023/08/09 13:45:00;;;;;;;1.98;1.42;;;;;;;25.90;52.18;100809.38;1698517;80;21235;-58
2023/08/09 13:50:37;;;;;;;3.25;1.60;;;;;;;25.73;51.88;100814.25;1704436;80;21252;-59
2023/08/09 13:56:12;;;;;;;3.22;2.12;;;;;;;25.47;51.83;100807.52;1686694;80;21231;-59
2023/08/09 14:01:47;;;;;;;3.22;1.80;;;;;;;25.30;51.74;100807.27;1687601;81;21315;-56
2023/08/09 14:07:23;;;;;;;2.10;1.87;;;;;;;25.51;51.89;100808.70;1646710;81;21576;-57
2023/08/09 14:12:58;;;;;;;2.25;1.30;;;;;;;25.77;51.62;100805.59;1708035;80;21208;-55
2023/08/09 14:18:33;;;;;;;3.00;1.50;;;;;;;25.76;51.52;100811.78;1669077;80;21757;-56
2023/08/09 14:21:39;;;;;;;2.52;1.45;;;;;;;25.79;51.52;100813.19;1682628;82;21252;-57
2023/08/09 14:27:11;;;;;;;1.90;1.60;;;;;;;25.45;51.23;100817.31;1709106;80;21251;-56
2023/08/09 14:32:46;;;;;;;3.75;1.70;;;;;;;25.08;51.25;100829.13;1704338;80;21251;-56
2023/08/09 14:38:21;;;;;;;3.08;1.65;;;;;;;24.88;51.24;100831.67;1694054;79;21267;-56
2023/08/09 14:41:28;;;;;;;1.90;1.50;;;;;;;24.79;51.23;100828.16;1711447;80;21268;-56
2023/08/09 14:49:32;;;;;;;3.20;1.90;;;;;;;24.78;51.55;100820.30;1703763;80;21773;-56
2023/08/09 14:52:40;;;;;;;2.92;1.70;;;;;;;24.93;51.66;100819.67;1674482;78;21295;-58
2023/08/09 14:58:12;;;;;;;3.47;1.80;;;;;;;25.33;51.68;100816.56;1632997;82;21657;-57
2023/08/09 15:03:45;;;;;;;2.20;1.60;;;;;;;25.49;51.37;100822.67;1679048;81;21227;-57
2023/08/09 15:09:21;;;;;;;2.65;1.67;;;;;;;25.12;51.08;100818.26;1704315;80;21617;-57
2023/08/09 15:14:57;;;;;;;3.40;2.15;;;;;;;24.89;51.14;100819.34;1712267;79;21502;-56
2023/08/09 15:20:36;;;;;;;2.90;1.67;;;;;;;24.83;51.18;100825.16;1706445;79;21259;-57
2023/08/09 15:23:42;;;;;;;3.35;1.95;;;;;;;24.76;51.20;100835.14;1712576;80;21208;-56
2023/08/09 15:26:48;;;;;;;2.83;1.85;;;;;;;24.69;51.29;100831.66;1691329;80;21285;-57
2023/08/09 15:29:55;;;;;;;3.35;2.00;;;;;;;24.62;51.31;100841.32;1679984;81;21283;-57
2023/08/09 15:33:02;;;;;;;6.12;1.92;;;;;;;24.53;51.31;100844.27;1688113;80;21797;-57
2023/08/09 15:38:39;;;;;;;4.58;1.90;;;;;;;24.43;51.54;100849.16;1685242;81;21386;-57
2023/08/09 15:41:45;;;;;;;4.17;2.33;;;;;;;24.38;51.62;100846.27;1661286;82;21684;-55
2023/08/09 15:44:53;;;;;;;5.30;1.70;;;;;;;24.34;51.71;100850.66;1683374;81;21283;-58
2023/08/09 15:52:59;;;;;;;2.22;1.60;;;;;;;24.14;51.90;100854.52;1708049;80;21234;-57
2023/08/09 15:56:05;;;;;;;3.35;1.67;;;;;;;24.08;51.98;100860.27;1690160;82;21256;-57
2023/08/09 16:01:41;;;;;;;5.47;2.35;;;;;;;23.89;52.14;100858.23;1678108;80;21243;-56
2023/08/09 16:07:19;;;;;;;2.20;1.77;;;;;;;23.73;52.30;100855.38;1701988;80;21288;-58
2023/08/09 16:12:55;;;;;;;2.55;1.77;;;;;;;23.67;52.57;100860.58;1702933;80;21244;-57
2023/08/09 16:18:31;;;;;;;2.98;1.82;;;;;;;23.74;52.81;100859.89;1706506;79;21434;-57
2023/08/09 16:24:06;;;;;;;2.10;1.80;;;;;;;23.73;52.89;100859.03;1701681;80;21256;-57
2023/08/09 16:27:13;;;;;;;8.83;2.55;;;;;;;23.70;52.95;100863.73;1695251;80;21817;-57
2023/08/09 16:30:19;;;;;;;3.17;1.90;;;;;;;23.66;53.04;100863.91;1709334;79;21248;-57
2023/08/09 16:33:26;;;;;;;3.27;1.87;;;;;;;23.62;53.06;100866.92;1705291;80;21243;-57
2023/08/09 16:36:33;;;;;;;4.85;2.00;;;;;;;23.56;53.09;100869.33;1708043;80;21268;-57
2023/08/09 16:39:38;;;;;;;5.67;2.12;;;;;;;23.50;53.17;100870.30;1704299;80;21244;-57
2023/08/09 16:42:46;;;;;;;4.15;2.08;;;;;;;23.43;53.18;100873.26;1707726;80;21781;-57
2023/08/09 16:48:23;;;;;;;3.00;2.20;;;;;;;23.34;53.40;100880.87;1701781;80;21259;-57
2023/08/09 16:53:58;;;;;;;2.98;1.80;;;;;;;23.21;53.50;100880.55;1642730;83;21261;-57
2023/08/09 16:59:33;;;;;;;4.22;2.30;;;;;;;23.08;53.65;100880.83;1713689;80;21220;-57
2023/08/09 17:05:13;;;;;;;5.58;2.60;;;;;;;22.99;53.87;100883.68;1642744;81;21228;-57
2023/08/09 17:10:47;;;;;;;5.15;2.37;;;;;;;22.88;54.05;100885.11;1702925;80;21204;-57
2023/08/09 17:16:22;;;;;;;4.70;2.30;;;;;;;22.74;54.21;100892.04;1710696;80;21218;-56
2023/08/09 17:21:57;;;;;;;5.55;2.10;;;;;;;22.52;54.29;100893.16;1707622;79;21323;-56
2023/08/09 17:27:33;;;;;;;3.25;2.45;;;;;;;22.34;54.46;100897.97;1706888;78;21779;-56
2023/08/09 17:33:09;;;;;;;2.67;2.12;;;;;;;22.15;54.68;100905.01;1697316;80;21387;-57
2023/08/09 17:38:48;;;;;;;3.12;2.50;;;;;;;21.94;54.88;100903.31;1694912;81;21236;-56
2023/08/09 17:44:22;;;;;;;3.58;2.50;;;;;;;21.76;55.20;100909.79;1686484;80;21666;-56
2023/08/09 17:47:21;;;;;;;4.87;2.22;;;;;;;21.70;55.35;100913.49;1677274;81;21573;-57
2023/08/09 17:52:56;;;;;;;3.50;2.55;;;;;;;21.55;55.66;100914.44;1629821;82;21327;-57
2023/08/09 17:58:32;;;;;;;5.12;2.50;;;;;;;21.41;55.90;100923.19;1686205;81;21592;-57
2023/08/09 18:04:09;;;;;;;3.35;2.58;;;;;;;21.26;56.15;100933.88;1706041;80;21299;-57
2023/08/09 18:09:46;;;;;;;5.97;2.65;;;;;;;21.13;56.47;100937.67;1675936;82;21288;-57
2023/08/09 18:15:23;;;;;;;6.33;2.80;;;;;;;21.02;56.74;100938.97;1663482;81;21248;-58
2023/08/09 18:20:58;;;;;;;6.83;2.75;;;;;;;20.93;57.05;100935.59;1677948;83;21264;-58
2023/08/09 18:26:34;;;;;;;4.85;2.90;;;;;;;20.82;57.33;100933.56;1665073;79;21291;-58
2023/08/09 18:32:09;;;;;;;8.48;3.37;;;;;;;20.72;57.54;100940.20;1676757;82;21311;-57
2023/08/09 18:37:46;;;;;;;4.65;3.20;;;;;;;20.54;57.65;100945.70;1676012;80;21248;-57
2023/08/09 18:40:50;;;;;;;7.72;4.28;;;;;;;20.46;57.71;100937.64;1675154;80;21223;-56
2023/08/09 18:48:57;;;;;;;11.30;7.45;;;;;;;20.19;58.19;100944.48;1700555;80;21263;-57
2023/08/09 18:52:03;;;;;;;12.30;7.17;;;;;;;20.11;58.35;100938.63;1696333;80;21216;-57
2023/08/09 19:00:13;;;;;;;10.05;7.42;;;;;;;19.85;58.77;100943.50;1703156;80;21351;-56
2023/08/09 19:05:47;;;;;;;11.55;6.45;;;;;;;19.71;59.18;100948.82;1670803;81;21256;-58
2023/08/09 19:11:22;;;;;;;15.60;8.28;;;;;;;19.57;59.57;100949.40;1707662;78;21243;-57
2023/08/09 19:16:58;;;;;;;9.45;6.35;;;;;;;19.44;59.92;100944.45;1701837;80;21279;-58
2023/08/09 19:22:32;;;;;;;10.58;6.97;;;;;;;19.33;60.37;100947.91;1706658;80;21355;-57
2023/08/09 19:28:08;;;;;;;16.27;9.88;;;;;;;19.23;60.69;100948.34;1707960;78;21488;-57
2023/08/09 19:31:14;;;;;;;12.00;8.90;;;;;;;19.19;60.86;100950.69;1703392;80;21327;-57
2023/08/09 19:34:21;;;;;;;14.87;9.23;;;;;;;19.15;61.15;100941.63;1706833;78;21267;-57
2023/08/09 19:40:00;;;;;;;11.93;9.18;;;;;;;19.07;61.58;100947.42;1707315;79;21219;-57
2023/08/09 19:43:06;;;;;;;14.50;8.25;;;;;;;19.03;61.68;100955.31;1701104;80;21407;-58
2023/08/09 19:46:14;;;;;;;9.90;6.58;;;;;;;18.99;61.85;100953.20;1687340;81;21340;-57
2023/08/09 19:49:20;;;;;;;6.37;5.00;;;;;;;18.94;62.02;100954.38;1665149;81;21326;-58
2023/08/09 19:52:27;;;;;;;7.72;6.30;;;;;;;18.90;62.28;100952.56;1655937;80;21455;-57
2023/08/09 19:55:35;;;;;;;6.97;5.58;;;;;;;18.88;62.46;100958.02;1660337;81;21252;-57
2023/08/09 20:01:19;;;;;;;7.65;5.37;;;;;;;18.78;62.71;100970.94;1687524;81;21269;-57
2023/08/09 20:04:26;;;;;;;6.72;5.47;;;;;;;18.75;62.84;100966.34;1686268;82;21260;-56
2023/08/09 20:07:32;;;;;;;8.23;5.00;;;;;;;18.70;62.96;100973.93;1689479;82;21263;-57
2023/08/09 20:10:40;;;;;;;7.28;4.65;;;;;;;18.65;63.07;100979.27;1689861;81;21233;-56
2023/08/09 20:16:16;;;;;;;7.28;5.40;;;;;;;18.53;63.24;100987.05;1687683;83;21411;-57
2023/08/09 20:19:23;;;;;;;7.35;4.90;;;;;;;18.47;63.37;100981.80;1681475;81;21404;-57
2023/08/09 20:22:30;;;;;;;8.33;5.05;;;;;;;18.40;63.44;100986.51;1692594;82;21352;-57
2023/08/09 20:25:37;;;;;;;6.05;4.53;;;;;;;18.35;63.59;100983.48;1666499;81;21225;-57
2023/08/09 20:28:42;;;;;;;7.53;4.90;;;;;;;18.30;63.69;100982.42;1682196;80;21722;-57
2023/08/09 20:31:48;;;;;;;6.55;5.53;;;;;;;18.25;63.89;100991.34;1683339;82;21353;-56
2023/08/09 20:34:53;;;;;;;7.95;5.05;;;;;;;18.21;64.02;100993.37;1688482;82;21210;-57
2023/08/09 20:38:00;;;;;;;6.60;4.60;;;;;;;18.16;64.17;100996.78;1660336;81;21255;-55
2023/08/09 20:43:36;;;;;;;6.22;4.75;;;;;;;18.10;64.49;100998.14;1687368;82;21312;-56
2023/08/09 20:46:44;;;;;;;7.85;5.12;;;;;;;18.06;64.60;100993.55;1708327;80;21466;-57
2023/08/09 20:49:51;;;;;;;8.08;4.95;;;;;;;18.03;64.75;100995.35;1698324;80;21247;-56
2023/08/09 20:55:29;;;;;;;6.80;4.90;;;;;;;17.97;65.05;100990.66;1707400;82;21227;-57
2023/08/09 21:01:03;;;;;;;7.17;5.08;;;;;;;17.93;65.37;100994.37;1707262;80;21362;-57
2023/08/09 21:06:40;;;;;;;7.35;4.80;;;;;;;17.92;65.68;100994.58;1703068;80;21273;-57
2023/08/09 21:12:15;;;;;;;4.60;4.10;;;;;;;17.90;65.94;100998.11;1713685;80;21261;-60
2023/08/09 21:15:20;;;;;;;4.95;4.37;;;;;;;17.90;66.01;100996.73;1672617;80;21243;-57
2023/08/09 21:20:55;;;;;;;9.28;4.28;;;;;;;17.83;66.12;101009.16;1680066;80;21239;-56
2023/08/09 21:26:31;;;;;;;6.85;4.58;;;;;;;17.77;66.26;101014.67;1677704;80;21251;-56
2023/08/09 21:32:07;;;;;;;4.97;4.17;;;;;;;17.73;66.46;101010.59;1671172;81;21360;-57
2023/08/09 21:37:44;;;;;;;6.42;4.58;;;;;;;17.68;66.70;101013.98;1653370;81;21314;-57
2023/08/09 21:43:19;;;;;;;9.10;5.83;;;;;;;17.62;66.78;101005.65;1652579;82;21252;-57
2023/08/09 21:48:53;;;;;;;7.12;6.12;;;;;;;17.56;67.04;101000.94;1651759;82;21229;-57
2023/08/09 21:56:59;;;;;;;6.65;5.30;;;;;;;17.52;67.34;101002.42;1675991;80;21238;-57
2023/08/09 22:02:36;;;;;;;6.00;4.50;;;;;;;17.46;67.50;101009.63;1715629;80;21379;-57
2023/08/09 22:08:13;;;;;;;5.40;4.87;;;;;;;17.43;67.76;101017.44;1651764;82;21915;-57
2023/08/09 22:13:47;;;;;;;5.85;4.87;;;;;;;17.40;67.90;101006.27;1704866;81;21322;-58
2023/08/09 22:19:24;;;;;;;5.62;4.90;;;;;;;17.33;67.89;101016.43;1702258;80;21313;-58
2023/08/09 22:22:30;;;;;;;9.90;5.55;;;;;;;17.29;67.87;101016.53;1705986;80;21420;-56
2023/08/09 22:28:03;;;;;;;6.62;5.30;;;;;;;17.17;68.03;101012.61;1706074;79;21282;-57
2023/08/09 22:33:38;;;;;;;6.40;5.80;;;;;;;17.11;68.19;101022.27;1709035;80;21412;-57
2023/08/09 22:39:13;;;;;;;6.83;5.40;;;;;;;17.06;68.39;101024.79;1705084;79;21444;-57